sensor_id;sensor_type;location;lat;lon;timestamp;temperature;humidity
18781;DHT22;9519;51.890;8.970;2023-04-26T00:05:00;4.80;99.90
18781;DHT22;9519;51.890;8.970;2023-04-26T00:10:05;4.70;99.90
18781;DHT22;9519;51.890;8.970;2023-04-26T00:15:10;4.70;99.90
18781;DHT22;9519;51.890;8.970;2023-04-26T00:20:12;4.80;99.90
18781;DHT22;9519;51.890;8.970;2023-04-26T00:25:16;4.80;99.90
18781;DHT22;9519;51.890;8.970;2023-04-26T00:30:19;4.50;99.90
18781;DHT22;9519;51.890;8.970;2023-04-26T00:35:21;4.50;99.90
18781;DHT22;9519;51.890;8.970;2023-04-26T00:40:25;4.30;99.90
18781;DHT22;9519;51.890;8.970;2023-04-26T00:45:29;4.70;99.90
18781;DHT22;9519;51.890;8.970;2023-04-26T00:50:32;4.60;99.90
18781;DHT22;9519;51.890;8.970;2023-04-26T00:55:36;4.30;99.90
18781;DHT22;9519;51.890;8.970;2023-04-26T01:00:38;4.70;99.90
18781;DHT22;9519;51.890;8.970;2023-04-26T01:05:40;4.60;99.90
18781;DHT22;9519;51.890;8.970;2023-04-26T01:10:44;4.30;99.90
18781;DHT22;9519;51.890;8.970;2023-04-26T01:15:47;4.60;99.90
18781;DHT22;9519;51.890;8.970;2023-04-26T01:20:49;4.50;99.90
18781;DHT22;9519;51.890;8.970;2023-04-26T01:25:54;4.40;99.90
18781;DHT22;9519;51.890;8.970;2023-04-26T01:30:56;4.10;99.90
18781;DHT22;9519;51.890;8.970;2023-04-26T01:35:58;4.00;99.90
18781;DHT22;9519;51.890;8.970;2023-04-26T01:41:02;3.90;99.90
18781;DHT22;9519;51.890;8.970;2023-04-26T01:46:04;3.80;99.90
18781;DHT22;9519;51.890;8.970;2023-04-26T01:51:06;3.70;99.90
18781;DHT22;9519;51.890;8.970;2023-04-26T01:56:10;4.30;99.90
18781;DHT22;9519;51.890;8.970;2023-04-26T02:01:12;3.90;99.90
18781;DHT22;9519;51.890;8.970;2023-04-26T02:06:14;4.10;99.90
18781;DHT22;9519;51.890;8.970;2023-04-26T02:11:18;3.80;99.90
18781;DHT22;9519;51.890;8.970;2023-04-26T02:16:20;4.00;99.90
18781;DHT22;9519;51.890;8.970;2023-04-26T02:21:22;3.90;99.90
18781;DHT22;9519;51.890;8.970;2023-04-26T02:26:25;3.60;99.90
18781;DHT22;9519;51.890;8.970;2023-04-26T02:31:27;3.80;99.90
18781;DHT22;9519;51.890;8.970;2023-04-26T02:41:34;3.70;99.90
18781;DHT22;9519;51.890;8.970;2023-04-26T02:56:42;3.90;99.90
18781;DHT22;9519;51.890;8.970;2023-04-26T03:01:44;3.60;99.90
18781;DHT22;9519;51.890;8.970;2023-04-26T03:06:46;3.50;99.90
18781;DHT22;9519;51.890;8.970;2023-04-26T03:11:49;3.50;98.20
18781;DHT22;9519;51.890;8.970;2023-04-26T03:16:52;3.50;99.90
18781;DHT22;9519;51.890;8.970;2023-04-26T03:21:54;3.30;99.90
18781;DHT22;9519;51.890;8.970;2023-04-26T03:26:58;3.40;98.40
18781;DHT22;9519;51.890;8.970;2023-04-26T03:32:00;3.10;99.90
18781;DHT22;9519;51.890;8.970;2023-04-26T03:37:02;3.30;99.90
18781;DHT22;9519;51.890;8.970;2023-04-26T03:42:06;3.10;99.90
18781;DHT22;9519;51.890;8.970;2023-04-26T03:52:11;3.20;99.90
18781;DHT22;9519;51.890;8.970;2023-04-26T03:57:14;2.80;99.90
18781;DHT22;9519;51.890;8.970;2023-04-26T04:02:16;3.20;99.90
18781;DHT22;9519;51.890;8.970;2023-04-26T04:07:21;2.90;99.90
18781;DHT22;9519;51.890;8.970;2023-04-26T04:12:24;2.80;99.90
18781;DHT22;9519;51.890;8.970;2023-04-26T04:22:29;3.40;99.90
18781;DHT22;9519;51.890;8.970;2023-04-26T04:27:32;2.90;99.90
18781;DHT22;9519;51.890;8.970;2023-04-26T04:32:34;3.20;99.90
18781;DHT22;9519;51.890;8.970;2023-04-26T04:37:38;3.20;99.90
18781;DHT22;9519;51.890;8.970;2023-04-26T04:42:42;3.50;99.90
18781;DHT22;9519;51.890;8.970;2023-04-26T04:47:46;3.30;99.90
18781;DHT22;9519;51.890;8.970;2023-04-26T04:52:48;2.90;99.90
18781;DHT22;9519;51.890;8.970;2023-04-26T04:57:52;3.30;99.90
18781;DHT22;9519;51.890;8.970;2023-04-26T05:02:54;3.00;99.90
18781;DHT22;9519;51.890;8.970;2023-04-26T05:07:56;3.50;99.90
18781;DHT22;9519;51.890;8.970;2023-04-26T05:13:00;3.50;99.90
18781;DHT22;9519;51.890;8.970;2023-04-26T05:18:02;1.30;99.90
18781;DHT22;9519;51.890;8.970;2023-04-26T05:23:05;3.80;99.90
18781;DHT22;9519;51.890;8.970;2023-04-26T05:28:08;3.60;99.90
18781;DHT22;9519;51.890;8.970;2023-04-26T05:33:12;3.60;99.90
18781;DHT22;9519;51.890;8.970;2023-04-26T05:43:18;4.00;99.90
18781;DHT22;9519;51.890;8.970;2023-04-26T05:48:21;3.70;99.90
18781;DHT22;9519;51.890;8.970;2023-04-26T05:53:24;4.20;99.90
18781;DHT22;9519;51.890;8.970;2023-04-26T05:58:27;4.20;99.90
18781;DHT22;9519;51.890;8.970;2023-04-26T06:03:29;4.30;99.90
18781;DHT22;9519;51.890;8.970;2023-04-26T06:08:31;4.60;99.90
18781;DHT22;9519;51.890;8.970;2023-04-26T06:13:35;4.50;99.90
18781;DHT22;9519;51.890;8.970;2023-04-26T06:18:37;4.90;99.90
18781;DHT22;9519;51.890;8.970;2023-04-26T06:23:39;4.90;99.90
18781;DHT22;9519;51.890;8.970;2023-04-26T06:28:42;5.10;99.90
18781;DHT22;9519;51.890;8.970;2023-04-26T06:33:45;5.20;99.90
18781;DHT22;9519;51.890;8.970;2023-04-26T06:38:47;5.30;99.90
18781;DHT22;9519;51.890;8.970;2023-04-26T06:43:50;5.40;99.90
18781;DHT22;9519;51.890;8.970;2023-04-26T06:48:52;5.10;99.90
18781;DHT22;9519;51.890;8.970;2023-04-26T06:53:55;5.20;99.90
18781;DHT22;9519;51.890;8.970;2023-04-26T06:59:00;5.30;99.90
18781;DHT22;9519;51.890;8.970;2023-04-26T07:04:05;5.40;99.90
18781;DHT22;9519;51.890;8.970;2023-04-26T07:09:09;5.60;99.90
18781;DHT22;9519;51.890;8.970;2023-04-26T07:14:13;5.70;99.90
18781;DHT22;9519;51.890;8.970;2023-04-26T07:19:15;5.80;99.90
18781;DHT22;9519;51.890;8.970;2023-04-26T07:24:17;5.90;99.90
18781;DHT22;9519;51.890;8.970;2023-04-26T07:29:21;6.00;99.90
18781;DHT22;9519;51.890;8.970;2023-04-26T07:34:23;6.10;99.90
18781;DHT22;9519;51.890;8.970;2023-04-26T07:39:26;6.50;99.90
18781;DHT22;9519;51.890;8.970;2023-04-26T07:44:33;6.50;99.90
18781;DHT22;9519;51.890;8.970;2023-04-26T07:49:35;6.40;99.90
18781;DHT22;9519;51.890;8.970;2023-04-26T07:54:37;6.50;99.80
18781;DHT22;9519;51.890;8.970;2023-04-26T07:59:42;6.60;99.60
18781;DHT22;9519;51.890;8.970;2023-04-26T08:04:47;6.70;99.40
18781;DHT22;9519;51.890;8.970;2023-04-26T08:09:51;6.70;99.00
18781;DHT22;9519;51.890;8.970;2023-04-26T08:14:55;6.90;99.10
18781;DHT22;9519;51.890;8.970;2023-04-26T08:19:57;7.00;98.70
18781;DHT22;9519;51.890;8.970;2023-04-26T08:24:59;7.00;98.50
18781;DHT22;9519;51.890;8.970;2023-04-26T08:30:03;7.10;98.40
18781;DHT22;9519;51.890;8.970;2023-04-26T08:35:07;7.20;98.20
18781;DHT22;9519;51.890;8.970;2023-04-26T08:40:10;7.30;97.10
18781;DHT22;9519;51.890;8.970;2023-04-26T08:45:15;7.40;97.30
18781;DHT22;9519;51.890;8.970;2023-04-26T08:50:20;7.60;97.30
18781;DHT22;9519;51.890;8.970;2023-04-26T08:55:23;7.60;96.50
18781;DHT22;9519;51.890;8.970;2023-04-26T09:00:27;7.60;96.30
18781;DHT22;9519;51.890;8.970;2023-04-26T09:05:32;7.70;99.90
18781;DHT22;9519;51.890;8.970;2023-04-26T09:10:35;7.60;95.60
18781;DHT22;9519;51.890;8.970;2023-04-26T09:15:39;7.60;95.70
18781;DHT22;9519;51.890;8.970;2023-04-26T09:20:43;7.70;94.90
18781;DHT22;9519;51.890;8.970;2023-04-26T09:25:47;8.00;94.50
18781;DHT22;9519;51.890;8.970;2023-04-26T09:30:50;8.20;94.20
18781;DHT22;9519;51.890;8.970;2023-04-26T09:35:52;8.30;93.90
18781;DHT22;9519;51.890;8.970;2023-04-26T09:40:54;8.30;93.60
18781;DHT22;9519;51.890;8.970;2023-04-26T09:46:00;8.30;93.10
18781;DHT22;9519;51.890;8.970;2023-04-26T09:51:09;8.40;92.10
18781;DHT22;9519;51.890;8.970;2023-04-26T09:56:14;8.40;91.80
18781;DHT22;9519;51.890;8.970;2023-04-26T10:01:19;8.40;91.20
18781;DHT22;9519;51.890;8.970;2023-04-26T10:06:23;8.40;90.90
18781;DHT22;9519;51.890;8.970;2023-04-26T10:11:25;8.30;91.00
18781;DHT22;9519;51.890;8.970;2023-04-26T10:16:30;8.10;99.90
18781;DHT22;9519;51.890;8.970;2023-04-26T10:21:34;8.30;91.00
18781;DHT22;9519;51.890;8.970;2023-04-26T10:26:49;8.30;91.40
18781;DHT22;9519;51.890;8.970;2023-04-26T10:32:07;8.60;99.90
18781;DHT22;9519;51.890;8.970;2023-04-26T10:37:12;8.60;91.00
18781;DHT22;9519;51.890;8.970;2023-04-26T10:42:20;8.60;91.20
18781;DHT22;9519;51.890;8.970;2023-04-26T10:47:28;8.60;90.80
18781;DHT22;9519;51.890;8.970;2023-04-26T10:52:32;8.60;90.60
18781;DHT22;9519;51.890;8.970;2023-04-26T10:57:50;8.40;90.40
18781;DHT22;9519;51.890;8.970;2023-04-26T11:03:03;7.90;99.90
18781;DHT22;9519;51.890;8.970;2023-04-26T11:08:15;8.00;99.90
18781;DHT22;9519;51.890;8.970;2023-04-26T11:13:18;8.00;91.20
18781;DHT22;9519;51.890;8.970;2023-04-26T11:18:22;8.10;91.50
18781;DHT22;9519;51.890;8.970;2023-04-26T11:23:26;8.10;91.10
18781;DHT22;9519;51.890;8.970;2023-04-26T11:28:29;8.10;91.40
18781;DHT22;9519;51.890;8.970;2023-04-26T11:33:33;8.30;91.40
18781;DHT22;9519;51.890;8.970;2023-04-26T11:38:37;8.30;90.80
18781;DHT22;9519;51.890;8.970;2023-04-26T11:43:39;8.40;90.70
18781;DHT22;9519;51.890;8.970;2023-04-26T11:48:45;8.50;90.80
18781;DHT22;9519;51.890;8.970;2023-04-26T11:53:50;8.60;90.50
18781;DHT22;9519;51.890;8.970;2023-04-26T11:58:52;8.70;90.00
18781;DHT22;9519;51.890;8.970;2023-04-26T12:03:57;8.70;90.10
18781;DHT22;9519;51.890;8.970;2023-04-26T12:09:01;8.80;90.10
18781;DHT22;9519;51.890;8.970;2023-04-26T12:14:05;8.90;90.10
18781;DHT22;9519;51.890;8.970;2023-04-26T12:19:08;9.00;90.20
18781;DHT22;9519;51.890;8.970;2023-04-26T12:24:24;9.10;90.00
18781;DHT22;9519;51.890;8.970;2023-04-26T12:29:29;9.10;89.50
18781;DHT22;9519;51.890;8.970;2023-04-26T12:34:35;9.20;88.80
18781;DHT22;9519;51.890;8.970;2023-04-26T12:39:37;9.30;88.70
18781;DHT22;9519;51.890;8.970;2023-04-26T12:44:41;9.30;88.50
18781;DHT22;9519;51.890;8.970;2023-04-26T12:49:44;9.20;87.90
18781;DHT22;9519;51.890;8.970;2023-04-26T12:54:48;9.20;88.20
18781;DHT22;9519;51.890;8.970;2023-04-26T12:59:50;9.20;88.50
18781;DHT22;9519;51.890;8.970;2023-04-26T13:04:53;9.10;88.30
18781;DHT22;9519;51.890;8.970;2023-04-26T13:09:56;9.10;88.40
18781;DHT22;9519;51.890;8.970;2023-04-26T13:14:58;9.10;87.70
18781;DHT22;9519;51.890;8.970;2023-04-26T13:20:02;9.10;87.90
18781;DHT22;9519;51.890;8.970;2023-04-26T13:25:06;9.10;87.20
18781;DHT22;9519;51.890;8.970;2023-04-26T13:30:09;9.10;87.30
18781;DHT22;9519;51.890;8.970;2023-04-26T13:35:16;9.10;87.60
18781;DHT22;9519;51.890;8.970;2023-04-26T13:40:18;9.20;87.80
18781;DHT22;9519;51.890;8.970;2023-04-26T13:45:22;9.40;87.60
18781;DHT22;9519;51.890;8.970;2023-04-26T13:50:25;9.40;87.00
18781;DHT22;9519;51.890;8.970;2023-04-26T13:55:27;9.50;86.50
18781;DHT22;9519;51.890;8.970;2023-04-26T14:00:30;9.50;85.70
18781;DHT22;9519;51.890;8.970;2023-04-26T14:05:33;9.60;85.00
18781;DHT22;9519;51.890;8.970;2023-04-26T14:10:35;9.60;83.80
18781;DHT22;9519;51.890;8.970;2023-04-26T14:15:38;9.70;82.70
18781;DHT22;9519;51.890;8.970;2023-04-26T14:20:42;9.70;82.70
18781;DHT22;9519;51.890;8.970;2023-04-26T14:25:45;9.70;82.50
18781;DHT22;9519;51.890;8.970;2023-04-26T14:30:47;9.70;83.10
18781;DHT22;9519;51.890;8.970;2023-04-26T14:35:50;9.80;82.30
18781;DHT22;9519;51.890;8.970;2023-04-26T14:40:52;9.70;81.90
18781;DHT22;9519;51.890;8.970;2023-04-26T14:45:55;9.70;82.30
18781;DHT22;9519;51.890;8.970;2023-04-26T14:51:01;9.70;81.10
18781;DHT22;9519;51.890;8.970;2023-04-26T14:56:03;9.70;80.90
18781;DHT22;9519;51.890;8.970;2023-04-26T15:01:07;9.60;81.10
18781;DHT22;9519;51.890;8.970;2023-04-26T15:06:11;9.70;82.30
18781;DHT22;9519;51.890;8.970;2023-04-26T15:11:15;9.80;81.30
18781;DHT22;9519;51.890;8.970;2023-04-26T15:16:17;9.80;80.20
18781;DHT22;9519;51.890;8.970;2023-04-26T15:21:21;10.20;80.70
18781;DHT22;9519;51.890;8.970;2023-04-26T15:26:23;10.90;81.00
18781;DHT22;9519;51.890;8.970;2023-04-26T15:31:25;11.50;78.00
18781;DHT22;9519;51.890;8.970;2023-04-26T15:36:29;11.80;75.30
18781;DHT22;9519;51.890;8.970;2023-04-26T15:41:31;11.80;75.00
18781;DHT22;9519;51.890;8.970;2023-04-26T15:46:33;11.70;75.50
18781;DHT22;9519;51.890;8.970;2023-04-26T15:51:37;11.60;74.70
18781;DHT22;9519;51.890;8.970;2023-04-26T15:56:39;11.40;73.10
18781;DHT22;9519;51.890;8.970;2023-04-26T16:01:41;11.20;72.60
18781;DHT22;9519;51.890;8.970;2023-04-26T16:06:45;11.00;73.50
18781;DHT22;9519;51.890;8.970;2023-04-26T16:11:49;10.80;73.80
18781;DHT22;9519;51.890;8.970;2023-04-26T16:16:51;10.70;73.80
18781;DHT22;9519;51.890;8.970;2023-04-26T16:21:54;10.50;74.40
18781;DHT22;9519;51.890;8.970;2023-04-26T16:26:56;10.40;75.40
18781;DHT22;9519;51.890;8.970;2023-04-26T16:31:59;10.30;74.70
18781;DHT22;9519;51.890;8.970;2023-04-26T16:37:02;10.20;75.60
18781;DHT22;9519;51.890;8.970;2023-04-26T16:42:04;10.20;75.20
18781;DHT22;9519;51.890;8.970;2023-04-26T16:47:07;10.00;75.50
18781;DHT22;9519;51.890;8.970;2023-04-26T16:52:10;9.90;76.10
18781;DHT22;9519;51.890;8.970;2023-04-26T16:57:12;9.80;76.20
18781;DHT22;9519;51.890;8.970;2023-04-26T17:02:15;9.80;76.30
18781;DHT22;9519;51.890;8.970;2023-04-26T17:07:18;9.80;76.40
18781;DHT22;9519;51.890;8.970;2023-04-26T17:12:21;9.70;77.50
18781;DHT22;9519;51.890;8.970;2023-04-26T17:17:23;9.80;76.90
18781;DHT22;9519;51.890;8.970;2023-04-26T17:22:27;9.70;76.70
18781;DHT22;9519;51.890;8.970;2023-04-26T17:27:29;9.70;77.00
18781;DHT22;9519;51.890;8.970;2023-04-26T17:32:31;9.70;77.30
18781;DHT22;9519;51.890;8.970;2023-04-26T17:37:34;9.70;77.10
18781;DHT22;9519;51.890;8.970;2023-04-26T17:42:36;9.60;77.30
18781;DHT22;9519;51.890;8.970;2023-04-26T17:47:39;9.50;77.60
18781;DHT22;9519;51.890;8.970;2023-04-26T17:52:44;9.50;77.70
18781;DHT22;9519;51.890;8.970;2023-04-26T17:57:47;9.50;77.90
18781;DHT22;9519;51.890;8.970;2023-04-26T18:02:49;9.40;78.00
18781;DHT22;9519;51.890;8.970;2023-04-26T18:07:54;9.30;78.00
18781;DHT22;9519;51.890;8.970;2023-04-26T18:12:56;9.30;78.00
18781;DHT22;9519;51.890;8.970;2023-04-26T18:17:59;9.20;78.10
18781;DHT22;9519;51.890;8.970;2023-04-26T18:23:06;9.20;78.20
18781;DHT22;9519;51.890;8.970;2023-04-26T18:28:08;9.10;78.70
18781;DHT22;9519;51.890;8.970;2023-04-26T18:33:10;9.10;78.70
18781;DHT22;9519;51.890;8.970;2023-04-26T18:38:14;9.10;78.70
18781;DHT22;9519;51.890;8.970;2023-04-26T18:43:16;9.10;79.00
18781;DHT22;9519;51.890;8.970;2023-04-26T18:48:18;9.00;79.10
18781;DHT22;9519;51.890;8.970;2023-04-26T18:53:21;9.00;79.30
18781;DHT22;9519;51.890;8.970;2023-04-26T18:58:24;8.90;79.50
18781;DHT22;9519;51.890;8.970;2023-04-26T19:03:26;8.80;80.20
18781;DHT22;9519;51.890;8.970;2023-04-26T19:08:29;8.70;81.50
18781;DHT22;9519;51.890;8.970;2023-04-26T19:13:32;8.60;81.20
18781;DHT22;9519;51.890;8.970;2023-04-26T19:18:34;8.60;81.60
18781;DHT22;9519;51.890;8.970;2023-04-26T19:23:38;8.60;82.00
18781;DHT22;9519;51.890;8.970;2023-04-26T19:28:40;8.50;82.30
18781;DHT22;9519;51.890;8.970;2023-04-26T19:33:42;8.50;82.70
18781;DHT22;9519;51.890;8.970;2023-04-26T19:38:46;8.40;83.00
18781;DHT22;9519;51.890;8.970;2023-04-26T19:43:48;8.30;84.10
18781;DHT22;9519;51.890;8.970;2023-04-26T19:48:51;8.20;83.60
18781;DHT22;9519;51.890;8.970;2023-04-26T19:53:54;8.20;83.90
18781;DHT22;9519;51.890;8.970;2023-04-26T19:58:56;8.10;84.20
18781;DHT22;9519;51.890;8.970;2023-04-26T20:03:59;8.20;84.50
18781;DHT22;9519;51.890;8.970;2023-04-26T20:09:02;8.10;84.60
18781;DHT22;9519;51.890;8.970;2023-04-26T20:14:06;8.10;84.90
18781;DHT22;9519;51.890;8.970;2023-04-26T20:19:08;8.00;84.90
18781;DHT22;9519;51.890;8.970;2023-04-26T20:24:11;8.00;85.30
18781;DHT22;9519;51.890;8.970;2023-04-26T20:29:14;8.00;85.60
18781;DHT22;9519;51.890;8.970;2023-04-26T20:34:17;8.00;85.80
18781;DHT22;9519;51.890;8.970;2023-04-26T20:39:20;7.90;86.70
18781;DHT22;9519;51.890;8.970;2023-04-26T20:44:22;7.90;86.20
18781;DHT22;9519;51.890;8.970;2023-04-26T20:49:24;7.90;86.50
18781;DHT22;9519;51.890;8.970;2023-04-26T20:54:29;7.80;86.60
18781;DHT22;9519;51.890;8.970;2023-04-26T20:59:31;7.80;87.00
18781;DHT22;9519;51.890;8.970;2023-04-26T21:04:33;7.70;87.10
18781;DHT22;9519;51.890;8.970;2023-04-26T21:09:39;7.70;87.30
18781;DHT22;9519;51.890;8.970;2023-04-26T21:14:42;7.70;87.50
18781;DHT22;9519;51.890;8.970;2023-04-26T21:19:45;7.60;87.50
18781;DHT22;9519;51.890;8.970;2023-04-26T21:24:51;7.60;87.70
18781;DHT22;9519;51.890;8.970;2023-04-26T21:29:53;7.50;87.80
18781;DHT22;9519;51.890;8.970;2023-04-26T21:34:55;7.40;87.90
18781;DHT22;9519;51.890;8.970;2023-04-26T21:39:58;7.30;88.10
18781;DHT22;9519;51.890;8.970;2023-04-26T21:45:00;7.20;88.40
18781;DHT22;9519;51.890;8.970;2023-04-26T21:50:03;7.20;88.50
18781;DHT22;9519;51.890;8.970;2023-04-26T21:55:08;7.00;88.80
18781;DHT22;9519;51.890;8.970;2023-04-26T22:00:11;7.00;99.90
18781;DHT22;9519;51.890;8.970;2023-04-26T22:05:14;6.70;89.10
18781;DHT22;9519;51.890;8.970;2023-04-26T22:10:17;6.50;99.90
18781;DHT22;9519;51.890;8.970;2023-04-26T22:15:19;6.50;99.90
18781;DHT22;9519;51.890;8.970;2023-04-26T22:20:22;6.40;89.80
18781;DHT22;9519;51.890;8.970;2023-04-26T22:25:25;6.40;90.00
18781;DHT22;9519;51.890;8.970;2023-04-26T22:30:27;6.20;89.90
18781;DHT22;9519;51.890;8.970;2023-04-26T22:35:30;6.10;90.00
18781;DHT22;9519;51.890;8.970;2023-04-26T22:40:33;6.00;90.00
18781;DHT22;9519;51.890;8.970;2023-04-26T22:45:36;5.90;99.90
18781;DHT22;9519;51.890;8.970;2023-04-26T22:50:38;5.90;90.30
18781;DHT22;9519;51.890;8.970;2023-04-26T22:55:41;5.80;90.40
18781;DHT22;9519;51.890;8.970;2023-04-26T23:00:43;5.80;99.90
18781;DHT22;9519;51.890;8.970;2023-04-26T23:05:45;5.70;99.90
18781;DHT22;9519;51.890;8.970;2023-04-26T23:10:49;5.70;90.70
18781;DHT22;9519;51.890;8.970;2023-04-26T23:15:51;5.70;90.80
18781;DHT22;9519;51.890;8.970;2023-04-26T23:20:53;6.00;99.90
18781;DHT22;9519;51.890;8.970;2023-04-26T23:25:57;5.60;90.90
18781;DHT22;9519;51.890;8.970;2023-04-26T23:30:59;5.60;91.00
18781;DHT22;9519;51.890;8.970;2023-04-26T23:36:01;5.50;91.00
18781;DHT22;9519;51.890;8.970;2023-04-26T23:41:05;5.40;91.00
18781;DHT22;9519;51.890;8.970;2023-04-26T23:46:07;5.40;91.10
18781;DHT22;9519;51.890;8.970;2023-04-26T23:51:09;5.70;99.90
18781;DHT22;9519;51.890;8.970;2023-04-26T23:56:12;5.20;91.20
